CheckWX is a tool to help pilots better visualize weather data.  It is not intended as a substitute for an official pre-flight weather briefing.

12:40:21 UTC

EGSC TAF
Cambridge Airport
Cambridge, United Kingdom
TAF EGSC 221105Z 2212/2221 23009KT 9000 BKN012 BECMG 2212/2215 9999 BKN025

Mar-22@
12:00 UTC

Mar-22 @ 12:00 UTC

Mar-22@
21:00 UTC

Mar-22 @ 21:00 UTC

TAF EGSC 221105Z 2212/2221 23009KT 9000 BKN012
Wind
  • 230° at 9 KTS
Cloud Levels
  • Broken at 1,200' AGL

Mar-22@
12:00 UTC

Mar-22 @ 12:00 UTC

Mar-22@
21:00 UTC

Mar-22 @ 21:00 UTC

BECMG 2212/2215 9999 BKN025

Becoming

Becoming Conditions expected by Fri, Mar 22, 2019 @ 15:00 UTC

Wind
  • 230° at 9 KTS
Cloud Levels
  • Broken at 2,500' AGL